Time;durP1;ratioP1;P1;durP2;ratioP2;P2;SDS_P1;SDS_P2;PMS_P1;PMS_P2;Temp;Humidity;BMP_temperature;BMP_pressure;BME280_temperature;BME280_humidity;BME280_pressure;Samples;Min_cycle;Max_cycle;Signal;HPM_P1;HPM_P2
2021/12/29 00:00:14;;;;;;;43.72;21.38;;;-8.80;97.90;;;;;;4998025;28;20019;-87
2021/12/29 00:02:41;;;;;;;60.65;30.05;;;-8.80;97.80;;;;;;4997520;28;20022;-86
2021/12/29 00:05:07;;;;;;;62.05;30.00;;;-8.80;97.90;;;;;;4987074;28;20443;-86
2021/12/29 00:07:33;;;;;;;60.30;28.27;;;-8.80;97.90;;;;;;5013106;28;20018;-89
2021/12/29 00:10:01;;;;;;;54.83;29.52;;;-8.80;97.90;;;;;;5007467;28;20400;-86
2021/12/29 00:12:27;;;;;;;59.45;29.88;;;-8.80;97.80;;;;;;4995856;28;20018;-85
2021/12/29 00:14:55;;;;;;;63.90;33.92;;;-8.90;97.70;;;;;;4996964;28;20018;-85
2021/12/29 00:17:20;;;;;;;;;;;-8.90;97.70;;;;;;4997261;28;20061;-86
2021/12/29 00:19:46;;;;;;;39.95;20.85;;;-8.90;97.60;;;;;;4996939;28;19906;-85
2021/12/29 00:22:14;;;;;;;55.35;26.70;;;-9.00;97.60;;;;;;4995447;28;20027;-85
2021/12/29 00:24:40;;;;;;;63.35;30.52;;;-9.00;97.70;;;;;;4985822;28;20078;-85
2021/12/29 00:27:07;;;;;;;60.28;29.83;;;-9.10;97.60;;;;;;4998317;28;20053;-85
2021/12/29 00:29:33;;;;;;;56.88;28.23;;;-9.10;97.70;;;;;;5001558;28;20456;-84
2021/12/29 00:31:59;;;;;;;67.20;30.20;;;-9.00;97.90;;;;;;4996408;28;20035;-85
2021/12/29 00:34:24;;;;;;;67.93;28.65;;;-9.00;98.00;;;;;;4998091;28;20037;-86
2021/12/29 00:36:50;;;;;;;61.65;27.95;;;-9.00;97.90;;;;;;4995586;28;20046;-85
2021/12/29 00:39:16;;;;;;;58.78;24.90;;;-9.00;97.90;;;;;;4996632;28;20050;-86
2021/12/29 00:41:42;;;;;;;60.63;26.85;;;-9.00;97.90;;;;;;4996229;28;20034;-85
2021/12/29 00:44:08;;;;;;;63.67;29.13;;;-9.00;98.00;;;;;;4994641;28;20566;-85
2021/12/29 00:46:37;;;;;;;61.67;27.73;;;-8.90;98.10;;;;;;4992725;28;20480;-86
2021/12/29 00:49:03;;;;;;;63.53;28.92;;;-8.80;98.30;;;;;;5003085;28;20022;-85
2021/12/29 00:51:29;;;;;;;52.90;29.63;;;-8.80;98.30;;;;;;5005355;28;20034;-86
2021/12/29 00:53:55;;;;;;;53.42;26.52;;;-8.70;98.20;;;;;;4995773;28;20026;-85
2021/12/29 00:56:20;;;;;;;54.00;25.70;;;-8.70;98.20;;;;;;4995643;28;20041;-84
2021/12/29 00:58:46;;;;;;;54.53;26.02;;;-8.70;98.10;;;;;;4995155;28;20480;-85
2021/12/29 01:01:12;;;;;;;50.72;22.88;;;-8.60;98.10;;;;;;4996044;28;20038;-84
2021/12/29 01:03:38;;;;;;;48.85;24.45;;;-8.60;98.10;;;;;;4992337;28;20030;-83
2021/12/29 01:06:05;;;;;;;44.78;23.13;;;-8.60;98.00;;;;;;5001048;28;20112;-85
2021/12/29 01:08:32;;;;;;;46.67;23.47;;;-8.60;98.00;;;;;;5000601;28;20022;-83
2021/12/29 01:10:58;;;;;;;45.63;23.88;;;-8.60;97.90;;;;;;5001219;28;20306;-83
2021/12/29 01:13:33;;;;;;;48.10;22.80;;;-8.60;97.80;;;;;;4997354;28;20062;-88
2021/12/29 01:18:36;;;;;;;41.75;21.67;;;-8.70;97.70;;;;;;5002988;28;20022;-87
2021/12/29 01:21:03;;;;;;;43.83;22.13;;;-8.70;97.70;;;;;;5000285;28;20084;-88
2021/12/29 01:23:29;;;;;;;48.05;21.10;;;-8.70;97.80;;;;;;4981970;28;20480;-85
2021/12/29 01:25:55;;;;;;;40.30;18.70;;;-8.70;97.80;;;;;;4978966;28;20038;-85
2021/12/29 01:28:21;;;;;;;48.67;22.60;;;-8.70;97.90;;;;;;4976210;28;20019;-85
2021/12/29 01:30:46;;;;;;;42.95;21.13;;;-8.70;97.90;;;;;;4991143;28;20034;-86
2021/12/29 01:33:12;;;;;;;38.22;19.63;;;-8.60;98.00;;;;;;4998722;28;20365;-87
2021/12/29 01:35:40;;;;;;;39.38;18.73;;;-8.60;98.00;;;;;;5001113;28;20025;-85
2021/12/29 01:38:07;;;;;;;48.58;19.73;;;-8.60;98.00;;;;;;5016903;28;20101;-86
2021/12/29 01:40:35;;;;;;;36.40;21.08;;;-8.50;98.00;;;;;;5006055;28;20061;-87
2021/12/29 01:43:03;;;;;;;42.55;20.40;;;-8.50;98.10;;;;;;5012490;28;20034;-87
2021/12/29 01:45:28;;;;;;;;;;;-8.50;98.00;;;;;;5013230;28;20867;-87
2021/12/29 01:47:54;;;;;;;33.83;14.43;;;-8.50;98.00;;;;;;4997718;28;19913;-87
2021/12/29 01:50:20;;;;;;;37.55;17.73;;;-8.50;97.90;;;;;;4995114;28;20023;-88
2021/12/29 01:52:54;;;;;;;49.08;20.80;;;-8.50;97.80;;;;;;4996436;28;20426;-86
2021/12/29 01:55:20;;;;;;;43.28;21.10;;;-8.50;97.90;;;;;;4995517;28;20062;-85
2021/12/29 01:57:46;;;;;;;39.03;19.77;;;-8.40;98.00;;;;;;4995064;28;20037;-86
2021/12/29 02:00:17;;;;;;;40.88;20.67;;;-8.40;97.90;;;;;;4995008;28;20101;-87
2021/12/29 02:02:43;;;;;;;44.85;21.15;;;-8.40;97.80;;;;;;4995820;28;20450;-88
2021/12/29 02:05:09;;;;;;;56.38;23.13;;;-8.30;97.90;;;;;;4993767;28;20037;-82
2021/12/29 02:07:35;;;;;;;46.13;22.52;;;-8.30;97.90;;;;;;4992368;28;20070;-82
2021/12/29 02:10:03;;;;;;;48.67;22.90;;;-8.30;97.80;;;;;;4993481;28;20388;-82
2021/12/29 02:12:29;;;;;;;51.65;23.30;;;-8.20;98.00;;;;;;4993269;28;20037;-83
2021/12/29 02:14:54;;;;;;;52.05;23.83;;;-8.20;97.60;;;;;;4992369;28;20030;-82
2021/12/29 02:17:20;;;;;;;59.13;24.30;;;-8.10;97.60;;;;;;4995486;28;20049;-82
2021/12/29 02:19:46;;;;;;;56.05;29.88;;;-8.10;97.50;;;;;;4999151;28;20023;-84
2021/12/29 02:22:27;;;;;;;56.75;25.10;;;-8.10;97.40;;;;;;5015931;28;20077;-85
2021/12/29 02:25:06;;;;;;;54.88;24.77;;;-8.10;97.30;;;;;;4999091;28;20065;-87
2021/12/29 02:27:34;;;;;;;54.58;23.40;;;-8.10;97.20;;;;;;4999614;28;20036;-84
2021/12/29 02:30:01;;;;;;;62.97;28.92;;;-8.10;97.20;;;;;;4999003;28;20487;-84
2021/12/29 02:32:28;;;;;;;67.63;26.65;;;-8.00;97.20;;;;;;5005195;28;20057;-81
2021/12/29 02:34:54;;;;;;;63.20;34.05;;;-8.00;97.10;;;;;;5019559;28;20038;-87
2021/12/29 02:37:20;;;;;;;65.10;27.90;;;-8.00;97.00;;;;;;5016442;28;20180;-84
2021/12/29 02:39:48;;;;;;;61.35;25.83;;;-8.00;97.10;;;;;;5001007;28;20543;-84
2021/12/29 02:42:15;;;;;;;78.72;31.17;;;-8.00;97.00;;;;;;4997988;28;20046;-86
2021/12/29 02:44:42;;;;;;;47.67;21.92;;;-8.00;97.00;;;;;;5000312;28;20050;-83
2021/12/29 02:47:10;;;;;;;66.13;28.00;;;-8.00;96.90;;;;;;5005248;28;20030;-85
2021/12/29 02:49:35;;;;;;;70.53;34.38;;;-8.00;96.90;;;;;;5004136;28;20076;-85
2021/12/29 02:52:02;;;;;;;78.88;35.13;;;-7.90;96.90;;;;;;5003280;28;20030;-85
2021/12/29 02:54:27;;;;;;;58.15;25.65;;;-7.90;96.80;;;;;;5011407;28;20103;-84
2021/12/29 02:56:56;;;;;;;77.20;34.88;;;-8.00;96.50;;;;;;5018586;28;20118;-85
2021/12/29 02:59:23;;;;;;;67.93;28.25;;;-8.00;96.50;;;;;;5007088;28;20019;-85
2021/12/29 03:01:51;;;;;;;60.53;30.48;;;-8.10;96.50;;;;;;5010265;28;20053;-83
2021/12/29 03:04:17;;;;;;;;;;;-8.10;96.60;;;;;;5014137;28;20078;-85
2021/12/29 03:06:43;;;;;;;61.00;30.20;;;-8.10;96.60;;;;;;4999514;28;19913;-83
2021/12/29 03:09:12;;;;;;;62.50;21.73;;;-8.10;96.60;;;;;;4998826;28;20033;-84
2021/12/29 03:11:40;;;;;;;61.70;26.73;;;-8.10;96.60;;;;;;4998639;28;20076;-83
2021/12/29 03:14:06;;;;;;;66.78;27.92;;;-8.10;96.70;;;;;;4998280;28;20042;-85
2021/12/29 03:16:33;;;;;;;59.90;28.25;;;-8.10;96.80;;;;;;5011349;28;20031;-85
2021/12/29 03:18:59;;;;;;;;;;;-8.10;96.70;;;;;;5001567;28;20022;-85
2021/12/29 03:21:25;;;;;;;55.50;24.67;;;-8.10;96.70;;;;;;4998688;28;19905;-84
2021/12/29 03:23:51;;;;;;;58.30;26.15;;;-8.10;96.70;;;;;;4996904;28;20045;-87
2021/12/29 03:26:17;;;;;;;60.90;29.02;;;-8.10;96.60;;;;;;4999097;28;20014;-85
2021/12/29 03:28:44;;;;;;;61.50;26.98;;;-8.10;96.60;;;;;;4998298;28;20471;-86
2021/12/29 03:31:10;;;;;;;41.85;19.40;;;-8.20;96.30;;;;;;5001440;28;20033;-84
2021/12/29 03:33:37;;;;;;;68.80;30.75;;;-8.30;96.10;;;;;;5014034;28;20026;-85
2021/12/29 03:36:04;;;;;;;69.10;28.45;;;-8.30;96.10;;;;;;4996673;28;20514;-85
2021/12/29 03:38:33;;;;;;;53.13;26.80;;;-8.30;96.30;;;;;;5012849;28;20519;-86
2021/12/29 03:41:00;;;;;;;67.85;25.88;;;-8.30;96.20;;;;;;4997847;28;20114;-84
2021/12/29 03:43:28;;;;;;;57.92;26.10;;;-8.30;96.30;;;;;;4999801;28;20032;-86
2021/12/29 03:45:55;;;;;;;57.03;29.17;;;-8.30;96.30;;;;;;4998003;28;20045;-85
2021/12/29 03:48:24;;;;;;;63.70;26.43;;;-8.30;96.30;;;;;;4996821;28;20034;-83
2021/12/29 03:50:50;;;;;;;64.57;27.30;;;-8.30;96.40;;;;;;4995203;28;20299;-84
2021/12/29 03:53:16;;;;;;;55.75;22.08;;;-8.30;96.30;;;;;;4996950;28;20518;-84
2021/12/29 03:55:44;;;;;;;47.13;20.93;;;-8.30;96.30;;;;;;4997315;28;20030;-82
2021/12/29 03:58:10;;;;;;;;;;;-8.40;96.30;;;;;;4997084;28;20395;-83
2021/12/29 04:00:37;;;;;;;42.05;18.00;;;-8.40;96.30;;;;;;4995063;28;19906;-84
2021/12/29 04:03:05;;;;;;;59.55;23.88;;;-8.50;96.20;;;;;;4995530;28;20026;-86
2021/12/29 04:05:32;;;;;;;58.05;28.63;;;-8.50;96.40;;;;;;4996164;28;20034;-83
2021/12/29 04:07:57;;;;;;;55.42;27.23;;;-8.50;96.50;;;;;;4995812;28;20046;-84
2021/12/29 04:10:24;;;;;;;57.65;27.02;;;-8.50;96.60;;;;;;4997990;28;20193;-87
2021/12/29 04:12:50;;;;;;;41.33;20.17;;;-8.40;96.70;;;;;;4995860;28;20160;-84
2021/12/29 04:15:17;;;;;;;53.95;21.98;;;-8.40;96.70;;;;;;4996049;28;20057;-84
2021/12/29 04:17:44;;;;;;;55.00;24.60;;;-8.40;96.80;;;;;;4995842;28;20034;-84
2021/12/29 04:23:06;;;;;;;70.32;29.75;;;-8.50;96.50;;;;;;4996937;28;20069;-85
2021/12/29 04:25:35;;;;;;;66.43;28.73;;;-8.50;96.60;;;;;;4997051;28;20026;-86
2021/12/29 04:28:03;;;;;;;58.92;28.58;;;-8.40;96.60;;;;;;4998551;28;20034;-85
2021/12/29 04:30:31;;;;;;;71.38;29.25;;;-8.40;96.60;;;;;;5007335;28;20023;-84
2021/12/29 04:32:56;;;;;;;;;;;-8.40;96.40;;;;;;5012241;28;20041;-83
2021/12/29 04:35:23;;;;;;;74.60;34.77;;;-8.50;96.50;;;;;;5000336;28;19906;-84
2021/12/29 04:37:50;;;;;;;67.82;29.20;;;-8.50;96.50;;;;;;5001198;28;20107;-83
2021/12/29 04:40:16;;;;;;;81.90;30.88;;;-8.50;96.30;;;;;;4999196;28;20061;-85
2021/12/29 04:42:44;;;;;;;105.57;35.77;;;-8.50;96.30;;;;;;4996474;28;20033;-84
2021/12/29 04:45:10;;;;;;;104.35;41.25;;;-8.50;96.30;;;;;;4996026;28;20026;-86
2021/12/29 04:47:40;;;;;;;97.68;42.10;;;-8.50;96.40;;;;;;4995020;28;20030;-85
2021/12/29 04:50:18;;;;;;;92.43;41.13;;;-8.50;96.30;;;;;;4995186;28;20074;-84
2021/12/29 04:52:45;;;;;;;98.50;38.72;;;-8.50;96.10;;;;;;4994693;28;20084;-84
2021/12/29 04:55:11;;;;;;;103.93;45.05;;;-8.50;96.20;;;;;;4995755;28;20105;-84
2021/12/29 04:57:36;;;;;;;94.40;41.90;;;-8.50;96.30;;;;;;5001508;28;20117;-83
2021/12/29 05:00:05;;;;;;;107.38;46.83;;;-8.50;96.40;;;;;;5000214;28;20518;-85
2021/12/29 05:02:31;;;;;;;87.97;35.15;;;-8.50;96.10;;;;;;4989650;28;20070;-83
2021/12/29 05:05:01;;;;;;;74.90;31.23;;;-8.50;96.10;;;;;;4975360;28;20027;-84
2021/12/29 05:10:12;;;;;;;90.63;38.78;;;-8.50;96.00;;;;;;4994494;28;20042;-85
2021/12/29 05:12:38;;;;;;;70.43;33.05;;;-8.50;96.10;;;;;;4994631;28;20388;-84
2021/12/29 05:15:05;;;;;;;75.05;31.65;;;-8.50;96.20;;;;;;4994584;28;20036;-84
2021/12/29 05:17:30;;;;;;;77.55;35.15;;;-8.50;96.20;;;;;;4995846;28;20097;-83
2021/12/29 05:19:56;;;;;;;79.55;35.85;;;-8.50;96.20;;;;;;4999983;28;20030;-84
2021/12/29 05:22:22;;;;;;;64.78;28.02;;;-8.50;96.30;;;;;;5012379;28;20068;-84
2021/12/29 05:24:48;;;;;;;77.57;29.63;;;-8.50;96.30;;;;;;5007991;28;20026;-84
2021/12/29 05:27:14;;;;;;;79.72;32.35;;;-8.50;96.30;;;;;;4995124;28;20046;-85
2021/12/29 05:29:39;;;;;;;72.38;35.80;;;-8.50;96.20;;;;;;4994748;28;20383;-84
2021/12/29 05:32:07;;;;;;;63.00;23.67;;;-8.40;96.20;;;;;;4993694;28;20033;-84
2021/12/29 05:34:33;;;;;;;61.90;28.30;;;-8.50;96.00;;;;;;4994331;28;20025;-86
2021/12/29 05:36:58;;;;;;;83.85;33.22;;;-8.50;96.00;;;;;;5000166;28;20035;-80
2021/12/29 05:39:24;;;;;;;67.10;31.35;;;-8.50;96.00;;;;;;5000394;28;20450;-84
2021/12/29 05:41:51;;;;;;;65.00;29.98;;;-8.60;96.00;;;;;;4995754;28;20456;-85
2021/12/29 05:44:17;;;;;;;62.17;28.25;;;-8.70;96.10;;;;;;4995708;28;20460;-84
2021/12/29 05:46:43;;;;;;;64.07;21.23;;;-8.70;96.10;;;;;;4983425;28;20035;-86
2021/12/29 05:49:10;;;;;;;73.15;27.90;;;-8.70;96.10;;;;;;4980306;28;20034;-84
2021/12/29 05:51:37;;;;;;;62.33;23.30;;;-8.80;96.20;;;;;;5000341;28;20040;-85
2021/12/29 05:54:03;;;;;;;64.00;24.33;;;-8.80;96.20;;;;;;5010299;28;20027;-85
2021/12/29 05:56:29;;;;;;;52.42;26.75;;;-8.80;96.20;;;;;;4996787;28;20327;-83
2021/12/29 05:58:59;;;;;;;56.50;22.35;;;-8.90;96.20;;;;;;4994899;28;20027;-84
2021/12/29 06:01:25;;;;;;;66.70;27.10;;;-8.90;96.30;;;;;;4982597;28;20027;-86
2021/12/29 06:03:51;;;;;;;62.92;27.35;;;-8.90;96.30;;;;;;4979070;28;20026;-84
2021/12/29 06:06:17;;;;;;;63.33;27.73;;;-9.00;96.30;;;;;;4979314;28;20030;-86
2021/12/29 06:08:43;;;;;;;52.95;25.48;;;-8.90;96.40;;;;;;4998368;28;20026;-85
2021/12/29 06:11:09;;;;;;;60.20;26.30;;;-8.90;96.50;;;;;;4998215;28;20034;-84
2021/12/29 06:13:34;;;;;;;68.95;28.50;;;-8.90;96.40;;;;;;4999212;28;20026;-86
2021/12/29 06:16:00;;;;;;;66.38;27.58;;;-8.90;96.40;;;;;;5001530;28;20105;-85
2021/12/29 06:18:26;;;;;;;53.58;25.48;;;-8.90;96.50;;;;;;4981398;28;20026;-85
2021/12/29 06:20:52;;;;;;;62.88;27.15;;;-8.90;96.50;;;;;;4978977;28;20048;-83
2021/12/29 06:23:17;;;;;;;64.93;29.80;;;-8.80;96.40;;;;;;4980627;28;20027;-86
2021/12/29 06:25:43;;;;;;;64.20;29.63;;;-8.80;96.40;;;;;;4996138;28;20031;-83
2021/12/29 06:28:09;;;;;;;68.93;32.60;;;-8.80;96.30;;;;;;4980365;28;20031;-84
2021/12/29 06:30:35;;;;;;;65.18;29.70;;;-8.80;96.10;;;;;;4982412;28;20034;-85
2021/12/29 06:33:01;;;;;;;71.55;30.00;;;-8.80;96.20;;;;;;4998171;28;20026;-85
2021/12/29 06:35:27;;;;;;;70.32;30.00;;;-8.80;96.20;;;;;;4998109;28;20030;-85
2021/12/29 06:37:54;;;;;;;75.68;33.70;;;-8.80;96.10;;;;;;5002178;28;20061;-86
2021/12/29 06:40:19;;;;;;;57.10;25.60;;;-8.80;96.10;;;;;;5006489;28;20468;-87
2021/12/29 06:42:45;;;;;;;73.18;35.13;;;-8.90;96.10;;;;;;5005389;28;20026;-85
2021/12/29 06:45:12;;;;;;;70.30;34.85;;;-8.90;96.10;;;;;;4996904;28;20035;-84
2021/12/29 06:47:38;;;;;;;58.17;26.17;;;-8.90;96.10;;;;;;4993706;28;20391;-87
2021/12/29 06:50:05;;;;;;;72.43;32.88;;;-8.80;96.10;;;;;;4996758;28;20034;-88
2021/12/29 06:52:33;;;;;;;75.22;32.15;;;-8.90;96.00;;;;;;4999531;28;20022;-89
2021/12/29 06:54:59;;;;;;;83.68;35.20;;;-8.80;95.90;;;;;;4997780;28;20392;-84
2021/12/29 06:57:25;;;;;;;68.18;34.47;;;-8.80;95.80;;;;;;4989782;28;20047;-86
2021/12/29 06:59:51;;;;;;;68.10;33.60;;;-8.80;95.70;;;;;;4995063;28;20023;-86
2021/12/29 07:02:17;;;;;;;63.20;32.78;;;-8.80;95.70;;;;;;4983345;28;20472;-83
2021/12/29 07:04:44;;;;;;;59.45;25.38;;;-8.70;95.60;;;;;;4988607;28;20128;-87
2021/12/29 07:07:10;;;;;;;65.18;30.00;;;-8.70;95.50;;;;;;4989880;28;20098;-89
2021/12/29 07:09:36;;;;;;;61.92;28.85;;;-8.70;95.50;;;;;;4996023;28;20394;-83
2021/12/29 07:12:03;;;;;;;62.90;27.63;;;-8.70;95.60;;;;;;4994892;28;20154;-83
2021/12/29 07:14:29;;;;;;;61.43;29.90;;;-8.70;95.50;;;;;;4996192;28;20050;-84
2021/12/29 07:16:54;;;;;;;67.68;35.30;;;-8.70;95.60;;;;;;4994681;28;20736;-83
2021/12/29 07:19:21;;;;;;;65.63;30.48;;;-8.70;95.50;;;;;;4995926;28;20097;-82
2021/12/29 07:21:48;;;;;;;69.05;33.67;;;-8.70;95.50;;;;;;5001079;28;20030;-86
2021/12/29 07:24:14;;;;;;;67.15;34.25;;;-8.60;95.50;;;;;;5004139;28;20132;-84
2021/12/29 07:26:40;;;;;;;59.75;28.55;;;-8.60;95.40;;;;;;4998517;28;20042;-84
2021/12/29 07:29:07;;;;;;;68.25;32.83;;;-8.60;95.40;;;;;;4995390;28;20026;-83
2021/12/29 07:31:33;;;;;;;60.67;31.98;;;-8.50;95.50;;;;;;4995791;28;20388;-83
2021/12/29 07:33:59;;;;;;;71.22;30.63;;;-8.50;95.30;;;;;;4995498;28;20035;-84
2021/12/29 07:36:25;;;;;;;54.70;28.45;;;-8.40;95.20;;;;;;4995821;28;20373;-87
2021/12/29 07:38:50;;;;;;;78.35;30.55;;;-8.40;95.10;;;;;;4996047;28;20100;-82
2021/12/29 07:41:16;;;;;;;64.18;32.25;;;-8.40;95.10;;;;;;4995610;28;20533;-83
2021/12/29 07:43:43;;;;;;;78.85;36.58;;;-8.40;95.10;;;;;;4995381;28;20027;-84
2021/12/29 07:46:11;;;;;;;63.63;32.47;;;-8.30;94.90;;;;;;4995918;28;20085;-84
2021/12/29 07:48:37;;;;;;;73.57;35.47;;;-8.40;94.40;;;;;;4996157;28;20029;-85
2021/12/29 07:51:05;;;;;;;66.50;33.40;;;-8.40;94.20;;;;;;4994531;28;20026;-84
2021/12/29 07:53:31;;;;;;;64.30;32.00;;;-8.40;94.10;;;;;;4995979;28;20042;-85
2021/12/29 07:55:57;;;;;;;60.83;29.50;;;-8.40;94.20;;;;;;4994202;28;20022;-85
2021/12/29 07:58:23;;;;;;;73.85;33.05;;;-8.40;94.20;;;;;;4994899;28;20030;-86
2021/12/29 08:00:49;;;;;;;65.80;33.47;;;-8.40;94.20;;;;;;4995707;28;20031;-85
2021/12/29 08:03:16;;;;;;;76.00;31.58;;;-8.40;94.10;;;;;;4995361;28;20487;-85
2021/12/29 08:05:43;;;;;;;60.58;28.77;;;-8.30;94.10;;;;;;4994404;28;20472;-84
2021/12/29 08:08:09;;;;;;;50.08;23.95;;;-8.30;94.30;;;;;;4995711;28;20038;-84
2021/12/29 08:10:36;;;;;;;68.65;31.30;;;-8.20;94.40;;;;;;4996054;28;20026;-83
2021/12/29 08:13:06;;;;;;;64.68;30.88;;;-8.10;94.20;;;;;;4996051;28;20113;-85
2021/12/29 08:15:34;;;;;;;56.67;26.42;;;-8.10;94.00;;;;;;4997775;28;20448;-84
2021/12/29 08:18:03;;;;;;;61.10;28.30;;;-8.10;93.80;;;;;;4998185;28;20435;-86
2021/12/29 08:20:32;;;;;;;74.78;34.30;;;-8.10;93.80;;;;;;5000780;28;20031;-84
2021/12/29 08:22:58;;;;;;;64.05;33.88;;;-8.10;93.60;;;;;;4994700;28;20019;-83
2021/12/29 08:25:35;;;;;;;68.22;31.10;;;-8.10;93.40;;;;;;4977829;28;20114;-84
2021/12/29 08:28:02;;;;;;;42.22;23.52;;;-8.10;93.30;;;;;;4974722;28;20470;-86
2021/12/29 08:30:28;;;;;;;55.38;30.25;;;-8.00;93.40;;;;;;4974248;28;20049;-83
2021/12/29 08:32:54;;;;;;;56.22;27.15;;;-7.90;93.60;;;;;;4975584;28;20041;-82
2021/12/29 08:35:20;;;;;;;53.13;28.33;;;-7.70;93.80;;;;;;4991478;28;20109;-85
2021/12/29 08:37:47;;;;;;;59.17;29.88;;;-7.60;93.90;;;;;;4976266;28;20492;-86
2021/12/29 08:40:13;;;;;;;52.53;26.05;;;-7.40;93.30;;;;;;4993303;28;20027;-86
2021/12/29 08:42:40;;;;;;;55.63;24.73;;;-7.30;92.90;;;;;;4977498;28;20037;-86
2021/12/29 08:45:08;;;;;;;60.75;29.92;;;-7.20;92.90;;;;;;4977454;28;20037;-85
2021/12/29 08:47:35;;;;;;;54.40;26.20;;;-7.10;92.90;;;;;;4979938;28;20023;-83
2021/12/29 08:50:01;;;;;;;56.55;24.83;;;-7.10;92.90;;;;;;4998643;28;20023;-83
2021/12/29 08:52:27;;;;;;;46.30;27.88;;;-7.00;92.90;;;;;;5006028;28;20026;-83
2021/12/29 08:54:53;;;;;;;61.38;33.03;;;-7.00;92.80;;;;;;4998452;28;20046;-84
2021/12/29 08:57:18;;;;;;;55.88;26.85;;;-6.90;92.20;;;;;;4994865;28;20034;-86
2021/12/29 08:59:44;;;;;;;57.15;25.25;;;-6.80;91.60;;;;;;4997078;28;20061;-85
2021/12/29 09:02:13;;;;;;;50.05;24.63;;;-6.80;91.60;;;;;;4998046;28;20062;-83
2021/12/29 09:04:39;;;;;;;55.50;27.50;;;-6.90;91.60;;;;;;4993842;28;20061;-84
2021/12/29 09:07:05;;;;;;;57.25;25.67;;;-6.70;91.90;;;;;;4994972;28;20022;-83
2021/12/29 09:09:31;;;;;;;42.90;23.73;;;-6.60;92.10;;;;;;4995183;28;20490;-86
2021/12/29 09:11:58;;;;;;;52.97;26.30;;;-6.50;92.30;;;;;;5000408;28;20046;-84
2021/12/29 09:14:24;;;;;;;49.65;22.35;;;-6.30;92.30;;;;;;5000967;28;20034;-82
2021/12/29 09:16:50;;;;;;;55.63;28.20;;;-6.20;92.20;;;;;;4998562;28;20049;-84
2021/12/29 09:19:16;;;;;;;64.22;28.33;;;-6.00;92.00;;;;;;5007246;28;20078;-84
2021/12/29 09:21:47;;;;;;;66.68;29.42;;;-6.00;91.50;;;;;;5005269;28;20475;-84
2021/12/29 09:24:13;;;;;;;50.33;26.38;;;-6.00;90.80;;;;;;4994994;28;20117;-84
2021/12/29 09:26:39;;;;;;;57.63;27.10;;;-6.00;90.80;;;;;;4993684;28;20114;-83
2021/12/29 09:29:05;;;;;;;60.10;31.45;;;-5.90;91.00;;;;;;4993769;28;20033;-86
2021/12/29 09:31:31;;;;;;;62.53;28.48;;;-5.80;90.90;;;;;;5010338;28;20169;-84
2021/12/29 09:33:58;;;;;;;52.90;28.60;;;-5.70;90.60;;;;;;4994913;28;20100;-83
2021/12/29 09:36:24;;;;;;;63.10;30.70;;;-5.70;88.90;;;;;;4994878;28;20056;-83
2021/12/29 09:38:50;;;;;;;59.30;30.58;;;-5.90;88.30;;;;;;5009980;28;20048;-84
2021/12/29 09:41:18;;;;;;;56.95;29.27;;;-6.00;88.20;;;;;;4993168;28;20027;-85
2021/12/29 09:43:46;;;;;;;57.60;30.27;;;-6.20;86.70;;;;;;4995249;28;20041;-85
2021/12/29 09:46:13;;;;;;;98.85;48.65;;;-6.40;87.10;;;;;;4992202;28;20026;-83
2021/12/29 09:48:39;;;;;;;59.42;33.60;;;-6.50;87.80;;;;;;4993719;28;20369;-84
2021/12/29 09:51:08;;;;;;;66.90;33.67;;;-6.60;88.50;;;;;;4993660;28;20022;-83
2021/12/29 09:53:34;;;;;;;74.75;32.65;;;-6.50;89.10;;;;;;4993418;28;20041;-84
2021/12/29 09:56:00;;;;;;;64.55;30.58;;;-6.60;89.20;;;;;;4993483;28;20066;-84
2021/12/29 09:58:26;;;;;;;78.53;38.40;;;-6.60;89.30;;;;;;4993456;28;20034;-82
2021/12/29 10:01:00;;;;;;;67.63;33.55;;;-6.60;89.80;;;;;;4993683;28;20023;-86
2021/12/29 10:03:28;;;;;;;73.95;34.38;;;-6.70;88.50;;;;;;4994125;28;20014;-85
2021/12/29 10:05:57;;;;;;;72.25;33.80;;;-6.80;88.30;;;;;;4993640;28;20033;-83
2021/12/29 10:08:31;;;;;;;70.30;34.33;;;-6.80;89.00;;;;;;4995593;28;20030;-84
2021/12/29 10:11:16;;;;;;;80.93;37.38;;;-6.60;90.30;;;;;;4994283;28;20379;-84
2021/12/29 10:13:45;;;;;;;64.82;31.77;;;-6.30;90.70;;;;;;4996123;28;20022;-85
2021/12/29 10:16:20;;;;;;;76.35;31.60;;;-5.90;90.80;;;;;;5001082;28;20057;-88
2021/12/29 10:18:53;;;;;;;68.65;32.08;;;-5.50;90.70;;;;;;4995626;28;20032;-84
2021/12/29 10:21:31;;;;;;;73.38;31.60;;;-5.00;90.40;;;;;;4993594;28;20050;-85
2021/12/29 10:24:01;;;;;;;60.22;30.88;;;-4.60;89.60;;;;;;4993474;28;20391;-83
2021/12/29 10:26:30;;;;;;;72.03;33.13;;;-4.20;88.90;;;;;;4993493;28;20022;-83
2021/12/29 10:29:01;;;;;;;73.50;32.50;;;-3.70;87.80;;;;;;4991956;28;20097;-84
2021/12/29 10:31:31;;;;;;;67.53;33.83;;;-3.40;86.00;;;;;;4993238;28;20023;-82
2021/12/29 10:34:06;;;;;;;66.40;32.60;;;-3.40;83.50;;;;;;4993569;28;20033;-85
2021/12/29 10:37:11;;;;;;;61.63;32.05;;;-3.70;81.40;;;;;;5008553;28;20496;-83
2021/12/29 10:39:46;;;;;;;73.13;36.05;;;-4.10;79.80;;;;;;5005924;28;20081;-84
2021/12/29 10:42:22;;;;;;;75.63;36.13;;;-4.60;79.90;;;;;;5012712;28;20386;-82
2021/12/29 10:44:49;;;;;;;69.65;36.97;;;-5.20;79.00;;;;;;4997561;28;20089;-85
2021/12/29 10:47:45;;;;;;;67.50;33.55;;;-5.70;79.60;;;;;;4997636;28;20026;-82
2021/12/29 10:50:14;;;;;;;76.93;34.65;;;-6.10;81.30;;;;;;4998659;28;20096;-84
2021/12/29 10:52:51;;;;;;;69.30;32.45;;;-6.40;82.80;;;;;;5012478;28;20022;-85
2021/12/29 10:55:31;;;;;;;69.40;30.20;;;-6.60;83.50;;;;;;4998242;28;20037;-83
2021/12/29 10:58:09;;;;;;;70.47;31.77;;;-6.80;83.80;;;;;;4997069;28;20034;-84
2021/12/29 11:00:37;;;;;;;69.78;33.83;;;-7.00;84.40;;;;;;4999501;28;20050;-83
2021/12/29 11:03:22;;;;;;;72.38;32.70;;;-7.10;84.70;;;;;;5014025;28;20040;-84
2021/12/29 11:05:58;;;;;;;63.90;29.05;;;-7.20;85.30;;;;;;5018684;28;20031;-84
2021/12/29 11:08:46;;;;;;;69.78;32.08;;;-7.40;85.90;;;;;;4997462;28;20026;-82
2021/12/29 11:11:12;;;;;;;74.03;32.72;;;-7.50;86.30;;;;;;4998643;28;20026;-83
2021/12/29 11:13:38;;;;;;;68.78;32.33;;;-7.50;86.60;;;;;;4999373;28;20018;-84
2021/12/29 11:16:05;;;;;;;77.23;32.97;;;-7.60;87.00;;;;;;4998151;28;20080;-83
2021/12/29 11:18:49;;;;;;;88.28;36.55;;;-7.70;87.10;;;;;;5016282;28;20592;-83
2021/12/29 11:21:31;;;;;;;69.25;33.58;;;-7.70;87.30;;;;;;5006558;28;20022;-84
2021/12/29 11:24:10;;;;;;;71.93;31.13;;;-7.70;87.50;;;;;;5004893;28;20034;-84
2021/12/29 11:26:37;;;;;;;74.93;32.08;;;-7.80;87.60;;;;;;4998459;28;20022;-83
2021/12/29 11:29:09;;;;;;;84.68;35.30;;;-7.90;87.90;;;;;;4999157;28;20030;-85
2021/12/29 11:31:46;;;;;;;78.40;34.13;;;-7.90;88.20;;;;;;4997140;28;20448;-85
2021/12/29 11:34:26;;;;;;;81.40;32.58;;;-7.90;88.40;;;;;;4997389;28;20026;-84
2021/12/29 11:37:09;;;;;;;65.05;32.30;;;-7.90;88.30;;;;;;4999393;28;20065;-83
2021/12/29 11:39:41;;;;;;;64.75;32.00;;;-8.10;88.30;;;;;;4998211;28;20125;-84
2021/12/29 11:42:08;;;;;;;72.72;32.65;;;-8.10;88.50;;;;;;4999191;28;20064;-85
2021/12/29 11:44:35;;;;;;;49.13;21.33;;;-8.10;88.90;;;;;;4999512;28;20392;-82
2021/12/29 11:47:02;;;;;;;69.03;31.52;;;-8.20;89.10;;;;;;4996283;28;20069;-82
2021/12/29 11:49:29;;;;;;;70.25;26.25;;;-8.20;89.30;;;;;;4996304;28;20041;-86
2021/12/29 11:51:57;;;;;;;62.28;29.92;;;-8.30;89.40;;;;;;4997506;28;20033;-83
2021/12/29 11:54:51;;;;;;;49.47;24.75;;;-8.40;89.20;;;;;;5000330;28;20027;-83
2021/12/29 11:57:23;;;;;;;72.82;27.05;;;-8.50;89.70;;;;;;5000531;28;20050;-85
2021/12/29 11:59:49;;;;;;;68.82;29.58;;;-8.60;90.00;;;;;;4997765;28;20026;-85
2021/12/29 12:02:25;;;;;;;58.38;25.77;;;-8.70;90.10;;;;;;4997363;28;20030;-83
2021/12/29 12:05:02;;;;;;;63.95;26.33;;;-8.80;90.10;;;;;;4996546;28;20113;-84
2021/12/29 12:07:28;;;;;;;;;;;-8.90;90.20;;;;;;4998157;28;20030;-82
2021/12/29 12:09:56;;;;;;;44.33;20.87;;;-9.00;90.30;;;;;;4996097;28;20379;-83
2021/12/29 12:12:37;;;;;;;64.63;25.73;;;-9.10;90.30;;;;;;4994688;28;20033;-86
2021/12/29 12:15:07;;;;;;;53.65;26.10;;;-9.30;90.80;;;;;;4994982;28;20045;-84
2021/12/29 12:17:33;;;;;;;54.95;25.75;;;-9.30;90.70;;;;;;4995261;28;20046;-85
2021/12/29 12:20:04;;;;;;;57.17;26.67;;;-9.40;90.90;;;;;;4994100;28;20034;-84
2021/12/29 12:22:47;;;;;;;72.78;34.33;;;-9.50;91.00;;;;;;4994617;28;20101;-86
2021/12/29 12:25:17;;;;;;;59.15;25.83;;;-9.60;91.40;;;;;;4995340;28;20369;-86
2021/12/29 12:27:46;;;;;;;68.57;33.38;;;-9.70;91.50;;;;;;4995019;28;20030;-87
2021/12/29 12:30:16;;;;;;;59.90;27.80;;;-9.70;91.40;;;;;;4995543;28;20023;-82
2021/12/29 12:32:54;;;;;;;70.57;30.65;;;-9.80;91.50;;;;;;5010833;28;20479;-84
2021/12/29 12:35:43;;;;;;;71.63;27.17;;;-9.80;91.70;;;;;;5012432;28;20030;-85
2021/12/29 12:38:21;;;;;;;60.70;26.40;;;-9.90;91.80;;;;;;4997919;28;20081;-84
2021/12/29 12:41:00;;;;;;;60.05;27.77;;;-9.90;91.90;;;;;;5026163;28;20023;-83